Terminal Aerodrome Forecast
Issued by NWS

Current Version | Previous Version | Text Only | Print | Product List | Glossary On
Versions: 1 2 3 4 5 6 7 8 9 10 11 12 13 14 15 16 17 18 19
000
FTUS43 KMQT 270538
TAFSAW
TAF
KSAW 270538Z 2706/2806 00000KT P6SM SCT050
     FM270800 00000KT P6SM BKN050
     FM271200 00000KT P6SM OVC030
     FM271800 17004KT P6SM VCSH OVC020
     FM272300 13006KT P6SM VCSH OVC010
     FM280400 20003KT P6SM BKN008=

USA.gov is the U.S. government's official web portal to all federal, state and local government web resources and services.